Time;durP1;ratioP1;P1;durP2;ratioP2;P2;SDS_P1;SDS_P2;PMS_P1;PMS_P2;Temp;Humidity;BMP_temperature;BMP_pressure;BME280_temperature;BME280_humidity;BME280_pressure;Samples;Min_cycle;Max_cycle;Signal;HPM_P1;HPM_P2
2021/10/24 00:00:41;;;;;;;14.90;11.32;;;7.50;80.20;;;;;;5091444;28;20148;-68
2021/10/24 00:03:07;;;;;;;15.07;10.90;;;7.50;80.30;;;;;;5091045;28;20033;-68
2021/10/24 00:05:32;;;;;;;14.68;11.70;;;7.40;80.20;;;;;;5090594;28;20020;-68
2021/10/24 00:07:58;;;;;;;14.80;10.73;;;7.40;80.20;;;;;;5090874;28;20024;-69
2021/10/24 00:10:24;;;;;;;15.48;11.13;;;7.40;80.30;;;;;;5094462;28;20074;-72
2021/10/24 00:12:49;;;;;;;15.65;10.68;;;7.40;80.40;;;;;;5090429;28;20089;-72
2021/10/24 00:15:15;;;;;;;15.70;11.15;;;7.40;80.40;;;;;;5090778;28;20032;-73
2021/10/24 00:17:41;;;;;;;14.50;11.40;;;7.40;80.40;;;;;;5072867;28;20461;-69
2021/10/24 00:20:07;;;;;;;13.15;11.25;;;7.40;80.40;;;;;;5071655;28;20067;-73
2021/10/24 00:22:32;;;;;;;14.68;11.10;;;7.40;80.40;;;;;;5094590;28;20040;-71
2021/10/24 00:24:58;;;;;;;14.88;10.50;;;7.40;80.40;;;;;;5084318;28;20043;-72
2021/10/24 00:27:24;;;;;;;14.30;11.02;;;7.30;80.30;;;;;;5092707;28;20136;-72
2021/10/24 00:29:50;;;;;;;16.55;11.05;;;7.30;80.30;;;;;;5095271;28;20028;-72
2021/10/24 00:32:16;;;;;;;17.70;11.25;;;7.30;80.20;;;;;;5097607;28;20542;-73
2021/10/24 00:34:42;;;;;;;14.25;11.23;;;7.30;80.30;;;;;;5096367;28;20433;-72
2021/10/24 00:37:08;;;;;;;17.15;11.98;;;7.30;80.30;;;;;;5101963;28;20259;-72
2021/10/24 00:39:34;;;;;;;16.05;11.63;;;7.20;80.30;;;;;;5098866;28;20031;-72
2021/10/24 00:42:00;;;;;;;15.18;11.70;;;7.20;80.40;;;;;;5072489;28;20024;-72
2021/10/24 00:44:29;;;;;;;14.32;11.23;;;7.20;81.00;;;;;;5077128;28;20028;-72
2021/10/24 00:46:57;;;;;;;13.52;10.70;;;7.30;80.50;;;;;;5073944;28;20490;-69
2021/10/24 00:49:24;;;;;;;18.90;11.32;;;7.20;80.50;;;;;;5089426;28;20024;-70
2021/10/24 00:51:50;;;;;;;13.65;11.40;;;7.20;80.50;;;;;;5085746;28;20058;-69
2021/10/24 00:54:19;;;;;;;12.98;10.68;;;7.20;80.60;;;;;;5089883;28;20020;-72
2021/10/24 00:56:48;;;;;;;14.82;11.75;;;7.20;80.50;;;;;;5100629;28;20107;-73
2021/10/24 00:59:15;;;;;;;15.32;10.95;;;7.10;80.50;;;;;;5090418;28;20029;-73
2021/10/24 01:01:40;;;;;;;15.23;9.50;;;7.10;80.50;;;;;;5089962;28;20035;-73
2021/10/24 01:04:07;;;;;;;14.50;10.82;;;7.10;80.50;;;;;;5088743;28;20031;-73
2021/10/24 01:06:37;;;;;;;13.45;11.38;;;7.10;80.30;;;;;;5090290;28;20028;-72
2021/10/24 01:09:08;;;;;;;15.88;10.82;;;7.10;80.50;;;;;;5091403;28;20111;-70
2021/10/24 01:11:34;;;;;;;13.75;11.35;;;7.10;80.50;;;;;;5095947;28;20530;-68
2021/10/24 01:14:00;;;;;;;12.48;10.52;;;7.10;80.50;;;;;;5090174;28;20108;-68
2021/10/24 01:16:26;;;;;;;13.90;10.93;;;7.00;80.50;;;;;;5087479;28;20111;-69
2021/10/24 01:18:52;;;;;;;15.43;10.95;;;7.00;80.60;;;;;;5089815;28;20028;-73
2021/10/24 01:21:18;;;;;;;14.70;11.38;;;7.00;80.70;;;;;;5071065;28;20457;-73
2021/10/24 01:23:44;;;;;;;14.65;11.02;;;7.00;80.80;;;;;;5089272;28;20537;-68
2021/10/24 01:26:11;;;;;;;15.80;11.90;;;6.90;81.50;;;;;;5088392;28;20027;-70
2021/10/24 01:28:37;;;;;;;14.93;11.60;;;6.90;80.90;;;;;;5095642;28;20047;-69
2021/10/24 01:31:03;;;;;;;12.20;10.88;;;6.90;81.10;;;;;;5098548;28;20056;-70
2021/10/24 01:33:29;;;;;;;16.65;12.05;;;6.90;81.10;;;;;;5074247;28;20028;-68
2021/10/24 01:36:00;;;;;;;15.50;10.85;;;6.90;81.10;;;;;;5089517;28;20028;-68
2021/10/24 01:38:27;;;;;;;14.80;11.52;;;6.90;81.10;;;;;;5075590;28;20482;-72
2021/10/24 01:40:54;;;;;;;17.20;11.88;;;6.90;81.10;;;;;;5077844;28;20029;-69
2021/10/24 01:43:21;;;;;;;19.20;12.48;;;6.80;81.10;;;;;;5089212;28;20024;-69
2021/10/24 01:45:47;;;;;;;14.93;11.70;;;6.90;81.20;;;;;;5089306;28;20422;-69
2021/10/24 01:48:15;;;;;;;14.73;10.82;;;6.90;81.20;;;;;;5090684;28;20049;-68
2021/10/24 01:50:40;;;;;;;13.93;11.40;;;6.80;81.00;;;;;;5103248;28;20039;-69
2021/10/24 01:53:06;;;;;;;15.73;11.00;;;6.80;80.90;;;;;;5070950;28;20498;-69
2021/10/24 01:55:32;;;;;;;13.18;11.40;;;6.80;80.90;;;;;;5100983;28;20026;-69
2021/10/24 01:57:58;;;;;;;15.98;11.80;;;6.80;81.50;;;;;;5089387;28;20024;-69
2021/10/24 02:00:25;;;;;;;13.93;11.38;;;6.80;81.00;;;;;;5070972;28;20032;-70
2021/10/24 02:02:51;;;;;;;14.80;11.27;;;6.80;80.90;;;;;;5071791;28;20032;-70
2021/10/24 02:05:17;;;;;;;13.32;11.13;;;6.80;80.90;;;;;;5096582;28;20027;-69
2021/10/24 02:07:44;;;;;;;18.10;11.95;;;6.80;81.00;;;;;;5088031;28;20138;-72
2021/10/24 02:10:14;;;;;;;16.20;11.50;;;6.80;80.90;;;;;;5088262;28;20467;-72
2021/10/24 02:12:41;;;;;;;16.50;10.88;;;6.70;80.90;;;;;;5088663;28;20024;-72
2021/10/24 02:15:09;;;;;;;14.25;11.63;;;6.70;80.80;;;;;;5070945;28;20047;-69
2021/10/24 02:17:36;;;;;;;14.50;11.52;;;6.70;80.80;;;;;;5091960;28;20036;-73
2021/10/24 02:20:05;;;;;;;16.75;11.45;;;6.70;80.80;;;;;;5089613;28;20040;-72
2021/10/24 02:22:31;;;;;;;16.95;10.90;;;6.70;80.80;;;;;;5088372;28;20036;-73
2021/10/24 02:24:56;;;;;;;14.50;11.90;;;6.70;80.70;;;;;;5091132;28;20016;-72
2021/10/24 02:27:22;;;;;;;17.48;12.13;;;6.70;80.70;;;;;;5091419;28;20024;-73
2021/10/24 02:29:48;;;;;;;14.90;11.27;;;6.60;80.60;;;;;;5081333;28;20081;-70
2021/10/24 02:32:14;;;;;;;15.15;11.35;;;6.70;80.80;;;;;;5088580;28;20462;-73
2021/10/24 02:34:40;;;;;;;14.57;11.20;;;6.60;80.70;;;;;;5092608;28;20040;-73
2021/10/24 02:37:06;;;;;;;17.52;11.85;;;6.60;80.80;;;;;;5087713;28;20035;-72
2021/10/24 02:39:32;;;;;;;14.40;10.90;;;6.60;80.70;;;;;;5098396;28;20020;-72
2021/10/24 02:41:58;;;;;;;13.40;10.95;;;6.60;80.70;;;;;;5073937;28;20047;-72
2021/10/24 02:44:24;;;;;;;16.92;12.75;;;6.60;80.70;;;;;;5074616;28;20032;-72
2021/10/24 02:46:50;;;;;;;18.27;11.68;;;6.50;80.80;;;;;;5103083;28;20107;-72
2021/10/24 02:49:17;;;;;;;14.20;11.10;;;6.50;80.80;;;;;;5092068;28;20093;-72
2021/10/24 02:51:43;;;;;;;15.10;11.45;;;6.50;80.70;;;;;;5075844;28;20101;-73
2021/10/24 02:54:09;;;;;;;12.48;10.48;;;6.50;80.80;;;;;;5091822;28;20111;-70
2021/10/24 02:56:34;;;;;;;17.98;12.40;;;6.50;80.70;;;;;;5093522;28;20390;-70
2021/10/24 02:59:00;;;;;;;15.50;12.48;;;6.40;80.70;;;;;;5073896;28;20028;-69
2021/10/24 03:01:26;;;;;;;17.58;12.05;;;6.50;80.90;;;;;;5098928;28;20105;-68
2021/10/24 03:03:52;;;;;;;14.90;11.93;;;6.50;81.20;;;;;;5077182;28;20123;-72
2021/10/24 03:06:17;;;;;;;15.55;11.48;;;6.40;80.90;;;;;;5095093;28;20036;-72
2021/10/24 03:08:43;;;;;;;21.50;11.98;;;6.40;80.90;;;;;;5099314;28;20038;-72
2021/10/24 03:11:09;;;;;;;14.15;11.45;;;6.40;81.00;;;;;;5070945;28;20141;-72
2021/10/24 03:13:34;;;;;;;15.02;11.98;;;6.40;81.00;;;;;;5075991;28;20064;-69
2021/10/24 03:16:00;;;;;;;15.95;12.07;;;6.30;80.90;;;;;;5053491;28;20074;-68
2021/10/24 03:18:27;;;;;;;20.63;11.27;;;6.30;81.00;;;;;;5101872;28;20469;-72
2021/10/24 03:20:53;;;;;;;16.40;11.77;;;6.30;81.10;;;;;;5091654;28;20479;-72
2021/10/24 03:23:18;;;;;;;15.07;11.38;;;6.30;81.10;;;;;;5102370;28;20104;-72
2021/10/24 03:25:44;;;;;;;17.55;11.63;;;6.30;81.00;;;;;;5075802;28;20024;-69
2021/10/24 03:28:10;;;;;;;17.02;12.40;;;6.30;81.00;;;;;;5038373;28;20033;-72
2021/10/24 03:30:36;;;;;;;14.38;11.23;;;6.30;81.10;;;;;;5092001;28;20024;-72
2021/10/24 03:33:02;;;;;;;15.65;11.57;;;6.30;81.20;;;;;;5092269;28;20530;-69
2021/10/24 03:35:27;;;;;;;18.67;11.90;;;6.30;81.20;;;;;;5056121;28;20028;-71
2021/10/24 03:37:53;;;;;;;16.42;11.95;;;6.20;81.20;;;;;;5073550;28;20444;-73
2021/10/24 03:40:19;;;;;;;17.35;11.65;;;6.20;81.20;;;;;;5091215;28;20020;-72
2021/10/24 03:42:45;;;;;;;15.88;10.95;;;6.20;81.20;;;;;;5090537;28;20120;-72
2021/10/24 03:45:11;;;;;;;16.38;11.80;;;6.20;81.20;;;;;;5091342;28;20028;-72
2021/10/24 03:47:37;;;;;;;16.27;11.25;;;6.20;81.20;;;;;;5091698;28;20035;-72
2021/10/24 03:50:04;;;;;;;16.80;12.15;;;6.20;81.30;;;;;;5090240;28;20020;-70
2021/10/24 03:52:30;;;;;;;17.35;11.20;;;6.20;81.40;;;;;;5064882;28;20352;-68
2021/10/24 03:54:56;;;;;;;20.85;11.98;;;6.20;81.40;;;;;;5091327;28;20495;-71
2021/10/24 03:57:22;;;;;;;15.02;10.93;;;6.20;81.30;;;;;;5070923;28;20048;-72
2021/10/24 03:59:48;;;;;;;15.13;10.68;;;6.20;81.30;;;;;;5090948;28;20115;-72
2021/10/24 04:02:14;;;;;;;15.82;11.77;;;6.20;81.20;;;;;;5090361;28;20438;-72
2021/10/24 04:04:41;;;;;;;18.75;11.60;;;6.10;81.10;;;;;;5072306;28;20044;-69
2021/10/24 04:07:07;;;;;;;16.90;11.38;;;6.10;81.20;;;;;;5089970;28;20521;-69
2021/10/24 04:09:33;;;;;;;15.93;11.60;;;6.10;81.10;;;;;;5090973;28;20060;-71
2021/10/24 04:11:59;;;;;;;17.27;11.30;;;6.10;81.10;;;;;;5090544;28;20039;-68
2021/10/24 04:14:25;;;;;;;16.88;11.90;;;6.10;81.20;;;;;;5090468;28;20043;-69
2021/10/24 04:16:52;;;;;;;19.08;11.52;;;6.10;81.20;;;;;;5072970;28;20036;-69
2021/10/24 04:19:18;;;;;;;17.58;11.38;;;6.10;81.20;;;;;;5089763;28;20052;-69
2021/10/24 04:21:44;;;;;;;14.93;10.25;;;6.00;81.10;;;;;;5088214;28;20032;-69
2021/10/24 04:24:10;;;;;;;17.88;12.10;;;6.00;81.20;;;;;;5089215;28;20459;-72
2021/10/24 04:26:36;;;;;;;15.68;11.75;;;6.00;81.20;;;;;;5077689;28;20508;-72
2021/10/24 04:29:02;;;;;;;16.80;11.18;;;6.00;81.20;;;;;;5079280;28;20052;-72
2021/10/24 04:31:27;;;;;;;15.95;11.13;;;6.00;81.20;;;;;;5088731;28;20025;-72
2021/10/24 04:33:54;;;;;;;14.27;10.32;;;6.00;81.30;;;;;;5070385;28;20198;-68
2021/10/24 04:36:20;;;;;;;15.88;11.10;;;5.90;81.20;;;;;;5072179;28;20028;-70
2021/10/24 04:38:47;;;;;;;13.80;11.38;;;5.90;81.20;;;;;;5090320;28;20712;-69
2021/10/24 04:41:12;;;;;;;13.52;10.40;;;5.90;81.20;;;;;;5071447;28;20069;-72
2021/10/24 04:43:38;;;;;;;15.95;11.20;;;5.90;81.20;;;;;;5071537;28;20036;-69
2021/10/24 04:46:04;;;;;;;13.40;10.35;;;5.80;81.10;;;;;;5071816;28;20109;-69
2021/10/24 04:48:29;;;;;;;19.00;11.38;;;5.90;81.20;;;;;;5090094;28;20054;-69
2021/10/24 04:50:55;;;;;;;15.18;10.93;;;5.80;81.20;;;;;;5071571;28;20032;-69
2021/10/24 04:53:21;;;;;;;15.32;10.90;;;5.80;81.30;;;;;;5064555;28;20051;-69
2021/10/24 04:55:47;;;;;;;16.08;10.90;;;5.80;81.30;;;;;;5071224;28;20028;-69
2021/10/24 04:58:13;;;;;;;16.90;11.05;;;5.80;81.20;;;;;;5071871;28;20564;-68
2021/10/24 05:00:40;;;;;;;14.70;10.55;;;5.80;81.20;;;;;;5071503;28;20103;-71
2021/10/24 05:03:05;;;;;;;16.30;11.70;;;5.80;81.20;;;;;;5080536;28;20035;-72
2021/10/24 05:05:31;;;;;;;17.27;12.32;;;5.80;81.20;;;;;;5088641;28;20028;-72
2021/10/24 05:07:57;;;;;;;12.57;10.32;;;5.80;81.30;;;;;;5089990;28;20091;-70
2021/10/24 05:10:23;;;;;;;14.10;10.82;;;5.70;81.30;;;;;;5089684;28;20124;-69
2021/10/24 05:12:48;;;;;;;16.70;10.40;;;5.70;81.30;;;;;;5089497;28;20483;-69
2021/10/24 05:15:14;;;;;;;14.57;10.40;;;5.70;81.40;;;;;;5071376;28;20043;-71
2021/10/24 05:17:40;;;;;;;14.50;10.88;;;5.70;81.40;;;;;;5089791;28;20406;-68
2021/10/24 05:20:06;;;;;;;13.75;10.55;;;5.70;81.40;;;;;;5070514;28;20048;-69
2021/10/24 05:22:33;;;;;;;13.70;10.23;;;5.70;82.00;;;;;;5089354;28;20044;-68
2021/10/24 05:24:59;;;;;;;15.13;10.75;;;5.70;81.40;;;;;;5088989;28;20024;-71
2021/10/24 05:27:25;;;;;;;13.15;10.63;;;5.70;81.50;;;;;;5090088;28;20526;-71
2021/10/24 05:29:50;;;;;;;15.48;10.88;;;5.70;81.40;;;;;;5089474;28;20123;-71
2021/10/24 05:32:16;;;;;;;14.68;10.07;;;5.70;81.40;;;;;;5070376;28;20119;-72
2021/10/24 05:34:42;;;;;;;14.77;10.73;;;5.60;81.30;;;;;;5089008;28;20028;-69
2021/10/24 05:37:09;;;;;;;15.75;10.77;;;5.60;81.30;;;;;;5071502;28;20025;-72
2021/10/24 05:39:35;;;;;;;16.50;10.43;;;5.60;81.30;;;;;;5071016;28;20107;-69
2021/10/24 05:42:02;;;;;;;16.50;10.45;;;5.60;81.30;;;;;;5088517;28;20032;-70
2021/10/24 05:44:28;;;;;;;20.25;10.13;;;5.60;81.40;;;;;;5054990;28;20032;-69
2021/10/24 05:46:54;;;;;;;14.75;10.55;;;5.60;81.40;;;;;;5089247;28;20107;-72
2021/10/24 05:49:21;;;;;;;14.00;10.10;;;5.60;81.40;;;;;;5055740;28;20156;-69
2021/10/24 05:51:47;;;;;;;14.05;10.55;;;5.50;81.40;;;;;;5087466;28;20028;-69
2021/10/24 05:54:12;;;;;;;17.05;11.50;;;5.60;81.50;;;;;;5071229;28;20067;-68
2021/10/24 05:56:38;;;;;;;12.77;9.88;;;5.50;81.50;;;;;;5089504;28;20016;-72
2021/10/24 05:59:04;;;;;;;15.73;10.63;;;5.50;81.60;;;;;;5070471;28;20028;-72
2021/10/24 06:01:30;;;;;;;16.42;11.13;;;5.50;81.70;;;;;;5070489;28;20033;-69
2021/10/24 06:03:56;;;;;;;14.82;10.07;;;5.50;81.70;;;;;;5088307;28;20119;-68
2021/10/24 06:06:21;;;;;;;13.95;9.15;;;5.50;81.70;;;;;;5089080;28;20032;-69
2021/10/24 06:08:47;;;;;;;13.45;10.02;;;5.50;81.60;;;;;;5089511;28;20032;-72
2021/10/24 06:13:46;;;;;;;14.03;10.93;;;5.50;81.70;;;;;;5089409;28;20039;-69
2021/10/24 06:16:12;;;;;;;16.30;11.02;;;5.50;81.80;;;;;;5091656;28;20043;-69
2021/10/24 06:18:39;;;;;;;14.43;10.57;;;5.40;81.80;;;;;;5092361;28;20020;-69
2021/10/24 06:21:06;;;;;;;12.20;10.20;;;5.40;81.80;;;;;;5091664;28;20035;-69
2021/10/24 06:23:32;;;;;;;17.13;9.88;;;5.40;81.90;;;;;;5091710;28;20020;-72
2021/10/24 06:25:58;;;;;;;14.25;10.02;;;5.40;81.90;;;;;;5093255;28;20024;-69
2021/10/24 06:28:24;;;;;;;14.98;9.98;;;5.40;81.80;;;;;;5092815;28;20027;-72
2021/10/24 06:30:50;;;;;;;13.80;11.05;;;5.40;81.80;;;;;;5074724;28;20754;-70
2021/10/24 06:33:16;;;;;;;14.18;10.52;;;5.40;82.50;;;;;;5074133;28;20051;-72
2021/10/24 06:35:41;;;;;;;13.38;9.95;;;5.40;81.90;;;;;;5074247;28;20036;-73
2021/10/24 06:38:07;;;;;;;13.15;10.75;;;5.40;82.00;;;;;;5092685;28;20098;-73
2021/10/24 06:40:33;;;;;;;13.07;10.68;;;5.40;82.00;;;;;;5090978;28;20031;-69
2021/10/24 06:42:58;;;;;;;12.68;10.20;;;5.40;82.00;;;;;;5073996;28;20028;-69
2021/10/24 06:45:27;;;;;;;12.95;9.98;;;5.40;82.00;;;;;;5073945;28;20028;-68
2021/10/24 06:47:52;;;;;;;15.07;10.10;;;5.40;82.10;;;;;;5092624;28;20024;-69
2021/10/24 06:50:18;;;;;;;15.90;10.70;;;5.40;82.20;;;;;;5055498;28;20028;-69
2021/10/24 06:52:44;;;;;;;15.88;10.98;;;5.40;82.20;;;;;;5066916;28;20046;-72
2021/10/24 06:55:10;;;;;;;17.92;11.40;;;5.40;82.30;;;;;;5090458;28;20485;-72
2021/10/24 06:57:52;;;;;;;16.08;11.77;;;5.40;82.50;;;;;;5092431;28;20030;-73
2021/10/24 07:00:23;;;;;;;15.05;11.63;;;5.50;82.70;;;;;;5072978;28;20172;-71
2021/10/24 07:02:49;;;;;;;17.17;11.40;;;5.50;82.80;;;;;;5091377;28;20085;-69
2021/10/24 07:05:15;;;;;;;14.57;11.98;;;5.50;82.90;;;;;;5092214;28;20058;-71
2021/10/24 07:07:41;;;;;;;17.30;12.20;;;5.50;83.10;;;;;;5091913;28;20030;-70
2021/10/24 07:10:08;;;;;;;15.68;11.77;;;5.50;83.20;;;;;;5071284;28;20046;-73
2021/10/24 07:12:35;;;;;;;16.80;12.20;;;5.60;83.40;;;;;;5050180;28;20036;-73
2021/10/24 07:15:00;;;;;;;17.80;11.90;;;5.60;83.60;;;;;;5089258;28;20028;-71
2021/10/24 07:17:26;;;;;;;15.95;11.15;;;5.60;83.60;;;;;;5072789;28;20043;-70
2021/10/24 07:19:52;;;;;;;17.20;11.88;;;5.70;83.80;;;;;;5072446;28;20090;-70
2021/10/24 07:22:17;;;;;;;21.05;12.85;;;5.70;83.90;;;;;;5091267;28;20039;-72
2021/10/24 07:24:43;;;;;;;17.48;13.05;;;5.80;84.10;;;;;;5090515;28;20125;-70
2021/10/24 07:27:09;;;;;;;17.75;13.15;;;5.80;84.20;;;;;;5091401;28;20032;-73
2021/10/24 07:29:34;;;;;;;19.73;13.68;;;5.90;84.30;;;;;;5072817;28;20067;-69
2021/10/24 07:32:01;;;;;;;18.27;12.25;;;5.90;84.50;;;;;;5088170;28;20474;-69
2021/10/24 07:34:27;;;;;;;20.50;13.05;;;6.00;84.70;;;;;;5072199;28;20028;-72
2021/10/24 07:36:52;;;;;;;18.15;12.65;;;6.10;84.90;;;;;;5063718;28;20039;-72
2021/10/24 07:39:18;;;;;;;22.55;13.23;;;6.10;84.90;;;;;;5093041;28;20031;-72
2021/10/24 07:41:47;;;;;;;20.38;13.50;;;6.10;85.00;;;;;;5077164;28;20032;-72
2021/10/24 07:44:14;;;;;;;21.55;13.68;;;6.20;85.30;;;;;;5093407;28;20056;-71
2021/10/24 07:46:40;;;;;;;23.35;13.70;;;6.30;85.50;;;;;;5084118;28;20023;-72
2021/10/24 07:49:06;;;;;;;21.10;13.60;;;6.30;85.60;;;;;;5090088;28;20024;-72
2021/10/24 07:51:32;;;;;;;20.17;14.13;;;6.40;85.80;;;;;;5096550;28;20020;-72
2021/10/24 07:53:58;;;;;;;24.83;14.43;;;6.40;85.80;;;;;;5084596;28;20028;-69
2021/10/24 07:56:24;;;;;;;20.83;13.63;;;6.50;86.10;;;;;;5095203;28;20032;-68
2021/10/24 07:58:49;;;;;;;20.45;15.15;;;6.50;86.20;;;;;;5072415;28;20039;-70
2021/10/24 08:01:19;;;;;;;21.60;14.10;;;6.50;86.40;;;;;;5074021;28;20024;-69
2021/10/24 08:03:46;;;;;;;20.30;14.57;;;6.60;86.50;;;;;;5092875;28;20024;-68
2021/10/24 08:06:12;;;;;;;20.52;14.00;;;6.60;87.10;;;;;;5088846;28;20028;-69
2021/10/24 08:08:39;;;;;;;21.45;14.27;;;6.70;86.90;;;;;;5089045;28;20391;-68
2021/10/24 08:11:05;;;;;;;21.98;13.63;;;6.80;87.10;;;;;;5096816;28;20032;-72
2021/10/24 08:13:32;;;;;;;18.23;14.38;;;6.80;87.20;;;;;;5093827;28;20089;-72
2021/10/24 08:15:57;;;;;;;25.15;15.00;;;6.90;87.20;;;;;;5095297;28;20378;-69
2021/10/24 08:18:23;;;;;;;23.40;14.80;;;6.90;87.20;;;;;;5082365;28;20032;-72
2021/10/24 08:20:49;;;;;;;20.48;13.57;;;6.90;87.20;;;;;;5060451;28;20052;-72
2021/10/24 08:23:16;;;;;;;22.48;14.38;;;7.00;87.30;;;;;;5070575;28;20043;-72
2021/10/24 08:25:42;;;;;;;22.75;14.35;;;7.10;87.50;;;;;;5087334;28;20031;-69
2021/10/24 08:28:07;;;;;;;20.00;12.95;;;7.10;87.60;;;;;;5082994;28;20032;-70
2021/10/24 08:30:34;;;;;;;22.45;13.98;;;7.20;87.50;;;;;;5068693;28;20526;-69
2021/10/24 08:33:00;;;;;;;17.77;12.73;;;7.20;87.70;;;;;;5090612;28;20802;-73
2021/10/24 08:35:27;;;;;;;20.80;14.20;;;7.30;87.70;;;;;;5077705;28;20523;-74
2021/10/24 08:37:52;;;;;;;19.63;12.80;;;7.40;87.90;;;;;;5068490;28;20161;-72
2021/10/24 08:40:19;;;;;;;20.15;12.25;;;7.40;87.80;;;;;;5091705;28;20484;-72
2021/10/24 08:42:51;;;;;;;20.90;12.73;;;7.50;87.80;;;;;;5091157;28;20055;-70
2021/10/24 08:45:18;;;;;;;19.02;12.52;;;7.60;87.80;;;;;;5072688;28;20559;-73
2021/10/24 08:47:43;;;;;;;18.85;11.43;;;7.70;87.60;;;;;;5072341;28;20480;-71
2021/10/24 08:50:10;;;;;;;17.48;11.48;;;7.80;87.50;;;;;;5091325;28;20028;-69
2021/10/24 08:52:39;;;;;;;13.20;9.85;;;7.90;87.30;;;;;;5068985;28;20486;-72
2021/10/24 08:55:06;;;;;;;16.42;11.32;;;8.10;87.10;;;;;;5062413;28;20047;-72
2021/10/24 08:57:32;;;;;;;20.02;11.95;;;8.20;86.60;;;;;;5073521;28;20117;-72
2021/10/24 08:59:58;;;;;;;16.20;12.10;;;8.30;86.40;;;;;;5082929;28;20514;-69
2021/10/24 09:02:45;;;;;;;15.00;10.68;;;8.30;86.30;;;;;;5063399;28;20058;-70
2021/10/24 09:05:25;;;;;;;14.82;11.50;;;8.40;86.40;;;;;;5083842;28;20070;-70
2021/10/24 09:07:54;;;;;;;15.85;11.10;;;8.50;86.30;;;;;;5089797;28;20028;-73
2021/10/24 09:10:39;;;;;;;15.48;11.90;;;8.60;85.90;;;;;;5088189;28;20039;-72
2021/10/24 09:13:07;;;;;;;16.30;11.55;;;8.70;85.70;;;;;;5088392;28;20016;-73
2021/10/24 09:15:56;;;;;;;15.65;11.82;;;8.70;86.10;;;;;;5075507;28;20044;-73
2021/10/24 09:18:39;;;;;;;16.70;12.00;;;8.80;85.50;;;;;;5079472;28;20034;-72
2021/10/24 09:21:17;;;;;;;16.90;11.50;;;8.90;85.40;;;;;;5083915;28;20068;-72
2021/10/24 09:23:52;;;;;;;16.60;11.85;;;9.00;85.20;;;;;;5063461;28;20024;-73
2021/10/24 09:26:25;;;;;;;20.85;12.77;;;9.10;84.90;;;;;;5086489;28;20032;-74
2021/10/24 09:29:09;;;;;;;20.10;11.25;;;9.20;85.10;;;;;;5080013;28;20392;-70
2021/10/24 09:31:36;;;;;;;14.20;10.55;;;9.30;84.50;;;;;;5089540;28;20169;-70
2021/10/24 09:34:20;;;;;;;16.77;10.15;;;9.40;84.50;;;;;;5071728;28;20487;-70
2021/10/24 09:36:48;;;;;;;15.60;10.50;;;9.60;84.50;;;;;;5095231;28;20024;-70
2021/10/24 09:39:14;;;;;;;15.93;9.60;;;9.70;84.10;;;;;;5086053;28;20028;-72
2021/10/24 09:41:39;;;;;;;15.50;8.85;;;9.90;83.40;;;;;;5088013;28;20479;-70
2021/10/24 09:44:13;;;;;;;13.00;8.73;;;9.90;82.90;;;;;;5093174;28;20020;-71
2021/10/24 09:46:56;;;;;;;14.32;9.60;;;10.00;82.40;;;;;;5092507;28;20044;-70
2021/10/24 09:49:25;;;;;;;13.00;9.43;;;10.10;81.90;;;;;;5057468;28;20070;-70
2021/10/24 09:51:55;;;;;;;13.70;8.95;;;10.20;81.10;;;;;;5088267;28;20390;-73
2021/10/24 09:54:25;;;;;;;15.25;9.05;;;10.20;81.30;;;;;;5090006;28;20028;-73
2021/10/24 09:56:52;;;;;;;16.70;9.20;;;10.40;81.70;;;;;;5091483;28;20055;-70
2021/10/24 09:59:24;;;;;;;12.45;8.73;;;10.50;81.50;;;;;;5085829;28;20124;-69
2021/10/24 10:01:52;;;;;;;15.68;8.80;;;10.70;81.30;;;;;;5084731;28;20024;-70
2021/10/24 10:04:18;;;;;;;13.10;8.77;;;10.80;80.80;;;;;;5087287;28;20094;-71
2021/10/24 10:06:44;;;;;;;11.98;8.10;;;10.90;80.20;;;;;;5070984;28;20024;-70
2021/10/24 10:09:12;;;;;;;12.73;8.80;;;11.00;80.10;;;;;;5070609;28;20027;-69
2021/10/24 10:11:54;;;;;;;10.32;7.68;;;11.10;80.30;;;;;;5088180;28;20043;-69
2021/10/24 10:14:30;;;;;;;11.23;7.43;;;11.20;79.20;;;;;;5070336;28;20028;-69
2021/10/24 10:17:11;;;;;;;13.50;8.20;;;11.40;79.00;;;;;;5089141;28;20032;-70
2021/10/24 10:19:47;;;;;;;12.90;8.45;;;11.50;78.30;;;;;;5088453;28;20070;-72
2021/10/24 10:22:21;;;;;;;12.35;7.53;;;11.40;77.10;;;;;;5088160;28;20044;-73
2021/10/24 10:25:00;;;;;;;14.27;8.77;;;11.50;77.70;;;;;;5070293;28;20083;-73
2021/10/24 10:27:32;;;;;;;14.60;8.02;;;11.60;77.10;;;;;;5066554;28;20020;-73
2021/10/24 10:30:00;;;;;;;11.97;7.90;;;11.70;77.00;;;;;;5072562;28;20043;-74
2021/10/24 10:32:47;;;;;;;11.60;7.68;;;11.90;77.10;;;;;;5083243;28;20445;-70
2021/10/24 10:35:18;;;;;;;13.90;7.82;;;12.00;76.10;;;;;;5091307;28;20032;-70
2021/10/24 10:37:53;;;;;;;10.48;6.63;;;12.10;75.70;;;;;;5075426;28;20139;-70
2021/10/24 10:40:38;;;;;;;10.57;6.97;;;12.20;76.30;;;;;;5063700;28;20059;-72
2021/10/24 10:43:23;;;;;;;11.88;7.88;;;12.30;76.30;;;;;;5087581;28;20055;-72
2021/10/24 10:45:56;;;;;;;12.15;7.13;;;12.30;74.80;;;;;;5058345;28;20015;-72
2021/10/24 10:48:22;;;;;;;10.68;7.70;;;12.40;74.80;;;;;;5067368;28;20448;-73
2021/10/24 10:50:49;;;;;;;10.40;6.85;;;12.50;74.40;;;;;;5096922;28;20523;-73
2021/10/24 10:53:38;;;;;;;9.48;6.85;;;12.60;74.70;;;;;;5083384;28;20036;-73
2021/10/24 10:56:07;;;;;;;9.95;6.75;;;12.70;73.90;;;;;;5076197;28;20032;-72
2021/10/24 10:58:40;;;;;;;11.82;6.80;;;12.80;72.50;;;;;;5101316;28;20393;-70
2021/10/24 11:01:18;;;;;;;10.60;6.75;;;12.90;72.70;;;;;;5094955;28;20066;-71
2021/10/24 11:03:47;;;;;;;8.15;6.35;;;13.00;73.00;;;;;;5094805;27;20138;-71
2021/10/24 11:06:28;;;;;;;8.82;6.68;;;13.10;72.90;;;;;;5086383;28;20037;-70
2021/10/24 11:09:03;;;;;;;10.40;6.28;;;13.10;72.40;;;;;;5088305;28;20035;-69
2021/10/24 11:11:47;;;;;;;10.55;6.63;;;13.20;72.30;;;;;;5087759;28;20412;-72
2021/10/24 11:14:16;;;;;;;10.52;7.20;;;13.30;72.10;;;;;;5082052;28;20024;-72
2021/10/24 11:16:50;;;;;;;9.20;6.65;;;13.40;70.40;;;;;;5080165;28;20047;-72
2021/10/24 11:19:36;;;;;;;10.88;6.97;;;13.40;70.90;;;;;;5081959;28;20025;-72
2021/10/24 11:22:11;;;;;;;12.23;6.75;;;13.40;70.50;;;;;;5087614;28;20035;-72
2021/10/24 11:24:47;;;;;;;9.98;6.20;;;13.50;70.00;;;;;;5089721;28;20046;-69
2021/10/24 11:27:19;;;;;;;9.60;7.07;;;13.50;69.80;;;;;;5081596;28;20038;-69
2021/10/24 11:29:58;;;;;;;9.52;6.80;;;13.60;68.60;;;;;;5093509;28;20023;-73
2021/10/24 11:32:25;;;;;;;10.13;6.55;;;13.70;69.30;;;;;;5087013;28;20103;-70
2021/10/24 11:34:54;;;;;;;9.20;7.05;;;13.80;69.90;;;;;;5082374;28;20082;-69
2021/10/24 11:37:38;;;;;;;9.77;6.07;;;14.00;69.40;;;;;;5088572;28;20057;-69
2021/10/24 11:40:08;;;;;;;12.43;7.22;;;14.00;68.70;;;;;;5086760;28;20106;-70
2021/10/24 11:42:34;;;;;;;11.10;7.28;;;14.10;68.40;;;;;;5089574;28;20746;-72
2021/10/24 11:45:19;;;;;;;9.18;6.60;;;14.10;67.60;;;;;;5087971;28;20031;-72
2021/10/24 11:48:03;;;;;;;9.00;6.38;;;14.10;67.40;;;;;;5090863;28;20467;-72
2021/10/24 11:50:47;;;;;;;9.57;6.18;;;14.10;67.90;;;;;;5082952;28;20476;-73
2021/10/24 11:53:18;;;;;;;7.57;5.90;;;14.20;68.80;;;;;;5086819;28;20056;-73
2021/10/24 11:55:45;;;;;;;8.90;6.03;;;14.30;66.40;;;;;;5082917;28;20206;-72
2021/10/24 12:00:54;;;;;;;7.82;5.43;;;14.50;63.80;;;;;;5084901;28;20050;-72
2021/10/24 12:03:28;;;;;;;7.15;5.13;;;14.70;65.10;;;;;;5062211;28;20437;-73
2021/10/24 12:05:54;;;;;;;6.20;4.80;;;15.10;64.80;;;;;;5085287;28;20471;-72
2021/10/24 12:08:45;;;;;;;7.38;4.90;;;15.80;65.00;;;;;;5084935;28;20035;-71
2021/10/24 12:11:35;;;;;;;8.80;5.05;;;16.40;60.40;;;;;;5086259;28;20743;-73
2021/10/24 12:14:02;;;;;;;8.27;5.45;;;17.20;57.50;;;;;;5078049;28;20395;-71
2021/10/24 12:16:33;;;;;;;9.13;5.28;;;18.20;53.70;;;;;;5087747;28;20060;-71
2021/10/24 12:19:15;;;;;;;9.88;4.95;;;18.90;53.00;;;;;;5088237;28;20057;-73
2021/10/24 12:21:56;;;;;;;7.60;5.57;;;19.80;50.30;;;;;;5067402;28;20036;-72
2021/10/24 12:24:26;;;;;;;6.63;5.20;;;20.90;48.10;;;;;;5091507;28;20039;-73
2021/10/24 12:27:21;;;;;;;5.43;4.50;;;22.00;45.10;;;;;;5087950;28;20028;-72
2021/10/24 12:30:07;;;;;;;6.75;4.57;;;23.30;43.80;;;;;;5076588;28;20052;-73
2021/10/24 12:32:34;;;;;;;6.15;4.80;;;24.40;42.10;;;;;;5087112;28;20012;-72
2021/10/24 12:35:11;;;;;;;7.00;4.32;;;24.20;40.20;;;;;;5093539;28;20020;-70
2021/10/24 12:37:40;;;;;;;5.53;4.15;;;23.90;41.20;;;;;;5104883;27;20013;-73
2021/10/24 12:40:21;;;;;;;7.45;5.40;;;23.50;41.10;;;;;;5090029;28;20039;-73
2021/10/24 12:43:07;;;;;;;7.82;4.93;;;22.40;42.00;;;;;;5088201;28;20039;-69
2021/10/24 12:45:52;;;;;;;7.80;4.72;;;21.20;45.00;;;;;;5088493;28;20065;-70
2021/10/24 12:48:20;;;;;;;6.10;4.43;;;20.70;46.00;;;;;;5086942;28;20522;-70
2021/10/24 12:50:47;;;;;;;6.95;4.93;;;20.90;47.00;;;;;;5068045;28;20042;-70